Omena, Michigan
Current Conditions -  °F | °C
As of 1:37 AM on Wednesday 26 Nov 2014 (Local Time) from KACB Reporting Station
Overcast Overcast  
Wind Chill: 21°   Ceiling: 2500
Heat Index: 27°   Visibility: 10mi
Dew Point: 22°   Wind: 6mph
Humidity: 82%   Direction: 170°S
Pressure: 30.19"   Gusts: NA
Location:  45.06°N, 85.59°W
Report Text: KACB 260637Z AUTO 17005KT 10SM OVC025 M03/M05 A3019 RMK AO2 T10261053
Loading
Personal Weather Stations






























Interactive Weather Map New forecast layout! Learn more

10-Day Weather Forecast

Advertisements
Track Severe Weather on mobile